sensor_id;sensor_type;location;lat;lon;timestamp;pressure;altitude;pressure_sealevel;temperature;humidity
9141;BME280;46330;50.822;7.126;2023-08-08T00:02:21;100930.59;;;13.73;99.22
9141;BME280;46330;50.822;7.126;2023-08-08T00:04:51;100920.06;;;13.73;99.36
9141;BME280;46330;50.822;7.126;2023-08-08T00:07:18;100928.09;;;13.69;98.79
9141;BME280;46330;50.822;7.126;2023-08-08T00:09:46;100925.22;;;13.78;99.38
9141;BME280;46330;50.822;7.126;2023-08-08T00:12:14;100916.78;;;13.67;98.94
9141;BME280;46330;50.822;7.126;2023-08-08T00:14:42;100916.81;;;13.65;99.31
9141;BME280;46330;50.822;7.126;2023-08-08T00:17:10;100912.50;;;13.63;98.39
9141;BME280;46330;50.822;7.126;2023-08-08T00:19:38;100916.03;;;13.62;97.79
9141;BME280;46330;50.822;7.126;2023-08-08T00:22:07;100916.91;;;13.62;98.91
9141;BME280;46330;50.822;7.126;2023-08-08T00:24:35;100906.28;;;13.67;98.75
9141;BME280;46330;50.822;7.126;2023-08-08T00:27:03;100893.06;;;13.68;99.25
9141;BME280;46330;50.822;7.126;2023-08-08T00:29:32;100899.44;;;13.60;98.89
9141;BME280;46330;50.822;7.126;2023-08-08T00:32:00;100902.06;;;13.60;98.54
9141;BME280;46330;50.822;7.126;2023-08-08T00:34:28;100908.22;;;13.59;98.66
9141;BME280;46330;50.822;7.126;2023-08-08T00:36:55;100913.72;;;13.50;97.89
9141;BME280;46330;50.822;7.126;2023-08-08T00:39:25;100907.63;;;13.49;97.82
9141;BME280;46330;50.822;7.126;2023-08-08T00:41:53;100908.59;;;13.45;98.19
9141;BME280;46330;50.822;7.126;2023-08-08T00:44:21;100908.53;;;13.48;98.34
9141;BME280;46330;50.822;7.126;2023-08-08T00:46:49;100896.41;;;13.42;98.30
9141;BME280;46330;50.822;7.126;2023-08-08T00:49:17;100893.84;;;13.39;97.85
9141;BME280;46330;50.822;7.126;2023-08-08T00:51:45;100892.19;;;13.37;98.13
9141;BME280;46330;50.822;7.126;2023-08-08T00:54:16;100887.06;;;13.32;98.19
9141;BME280;46330;50.822;7.126;2023-08-08T00:56:45;100885.50;;;13.24;98.73
9141;BME280;46330;50.822;7.126;2023-08-08T00:59:15;100897.69;;;13.26;98.59
9141;BME280;46330;50.822;7.126;2023-08-08T01:01:46;100895.06;;;13.26;98.02
9141;BME280;46330;50.822;7.126;2023-08-08T01:04:15;100894.25;;;13.26;98.53
9141;BME280;46330;50.822;7.126;2023-08-08T01:06:48;100889.06;;;13.23;99.04
9141;BME280;46330;50.822;7.126;2023-08-08T01:09:25;100885.66;;;13.19;99.15
9141;BME280;46330;50.822;7.126;2023-08-08T01:11:59;100891.06;;;13.13;99.20
9141;BME280;46330;50.822;7.126;2023-08-08T01:14:29;100896.34;;;13.12;99.40
9141;BME280;46330;50.822;7.126;2023-08-08T01:17:01;100887.78;;;13.02;99.04
9141;BME280;46330;50.822;7.126;2023-08-08T01:19:31;100889.56;;;13.02;99.85
9141;BME280;46330;50.822;7.126;2023-08-08T01:22:02;100893.19;;;12.96;100.00
9141;BME280;46330;50.822;7.126;2023-08-08T01:24:33;100898.66;;;12.88;100.00
9141;BME280;46330;50.822;7.126;2023-08-08T01:27:04;100887.47;;;12.80;100.00
9141;BME280;46330;50.822;7.126;2023-08-08T01:29:34;100884.13;;;12.74;100.00
9141;BME280;46330;50.822;7.126;2023-08-08T01:32:02;100897.31;;;12.72;100.00
9141;BME280;46330;50.822;7.126;2023-08-08T01:34:31;100890.38;;;12.70;100.00
9141;BME280;46330;50.822;7.126;2023-08-08T01:37:04;100891.41;;;12.63;100.00
9141;BME280;46330;50.822;7.126;2023-08-08T01:39:37;100892.41;;;12.57;100.00
9141;BME280;46330;50.822;7.126;2023-08-08T01:42:06;100890.69;;;12.55;100.00
9141;BME280;46330;50.822;7.126;2023-08-08T01:44:34;100887.34;;;12.50;100.00
9141;BME280;46330;50.822;7.126;2023-08-08T01:47:03;100883.03;;;12.47;100.00
9141;BME280;46330;50.822;7.126;2023-08-08T01:49:31;100878.75;;;12.43;100.00
9141;BME280;46330;50.822;7.126;2023-08-08T01:51:59;100881.66;;;12.31;100.00
9141;BME280;46330;50.822;7.126;2023-08-08T01:54:27;100871.94;;;12.34;100.00
9141;BME280;46330;50.822;7.126;2023-08-08T01:56:57;100871.16;;;12.31;100.00
9141;BME280;46330;50.822;7.126;2023-08-08T01:59:24;100879.09;;;12.28;100.00
9141;BME280;46330;50.822;7.126;2023-08-08T02:01:52;100879.97;;;12.28;100.00
9141;BME280;46330;50.822;7.126;2023-08-08T02:04:21;100870.34;;;12.29;100.00
9141;BME280;46330;50.822;7.126;2023-08-08T02:06:49;100884.47;;;12.22;100.00
9141;BME280;46330;50.822;7.126;2023-08-08T02:09:17;100888.97;;;12.15;100.00
9141;BME280;46330;50.822;7.126;2023-08-08T02:11:47;100884.63;;;12.14;100.00
9141;BME280;46330;50.822;7.126;2023-08-08T02:14:16;100883.06;;;12.06;100.00
9141;BME280;46330;50.822;7.126;2023-08-08T02:16:44;100883.13;;;12.03;100.00
9141;BME280;46330;50.822;7.126;2023-08-08T02:19:12;100877.16;;;11.96;100.00
9141;BME280;46330;50.822;7.126;2023-08-08T02:21:41;100872.84;;;11.95;100.00
9141;BME280;46330;50.822;7.126;2023-08-08T02:24:09;100872.84;;;11.94;100.00
9141;BME280;46330;50.822;7.126;2023-08-08T02:26:37;100866.91;;;11.85;100.00
9141;BME280;46330;50.822;7.126;2023-08-08T02:29:07;100873.09;;;11.83;100.00
9141;BME280;46330;50.822;7.126;2023-08-08T02:31:37;100869.72;;;11.76;100.00
9141;BME280;46330;50.822;7.126;2023-08-08T02:34:05;100873.09;;;11.81;100.00
9141;BME280;46330;50.822;7.126;2023-08-08T02:36:33;100855.72;;;11.77;100.00
9141;BME280;46330;50.822;7.126;2023-08-08T02:39:01;100853.97;;;11.78;100.00
9141;BME280;46330;50.822;7.126;2023-08-08T02:41:29;100855.81;;;11.73;100.00
9141;BME280;46330;50.822;7.126;2023-08-08T02:43:58;100859.34;;;11.69;100.00
9141;BME280;46330;50.822;7.126;2023-08-08T02:46:25;100853.31;;;11.67;100.00
9141;BME280;46330;50.822;7.126;2023-08-08T02:48:55;100855.13;;;11.63;100.00
9141;BME280;46330;50.822;7.126;2023-08-08T02:51:23;100858.75;;;11.56;100.00
9141;BME280;46330;50.822;7.126;2023-08-08T02:53:51;100852.69;;;11.54;100.00
9141;BME280;46330;50.822;7.126;2023-08-08T02:56:19;100837.84;;;11.53;100.00
9141;BME280;46330;50.822;7.126;2023-08-08T02:58:49;100834.47;;;11.48;100.00
9141;BME280;46330;50.822;7.126;2023-08-08T03:01:17;100847.69;;;11.41;100.00
9141;BME280;46330;50.822;7.126;2023-08-08T03:03:47;100851.25;;;11.38;100.00
9141;BME280;46330;50.822;7.126;2023-08-08T03:06:18;100833.78;;;11.37;100.00
9141;BME280;46330;50.822;7.126;2023-08-08T03:08:46;100842.63;;;11.31;100.00
9141;BME280;46330;50.822;7.126;2023-08-08T03:11:14;100839.19;;;11.29;100.00
9141;BME280;46330;50.822;7.126;2023-08-08T03:13:43;100830.53;;;11.24;100.00
9141;BME280;46330;50.822;7.126;2023-08-08T03:16:11;100827.03;;;11.27;100.00
9141;BME280;46330;50.822;7.126;2023-08-08T03:18:39;100815.69;;;11.26;100.00
9141;BME280;46330;50.822;7.126;2023-08-08T03:21:07;100825.31;;;11.24;100.00
9141;BME280;46330;50.822;7.126;2023-08-08T03:23:37;100823.63;;;11.22;100.00
9141;BME280;46330;50.822;7.126;2023-08-08T03:26:05;100804.41;;;11.21;100.00
9141;BME280;46330;50.822;7.126;2023-08-08T03:28:32;100802.66;;;11.22;100.00
9141;BME280;46330;50.822;7.126;2023-08-08T03:31:01;100804.47;;;11.20;100.00
9141;BME280;46330;50.822;7.126;2023-08-08T03:33:31;100807.97;;;11.20;100.00
9141;BME280;46330;50.822;7.126;2023-08-08T03:36:02;100807.91;;;11.23;100.00
9141;BME280;46330;50.822;7.126;2023-08-08T03:38:30;100812.22;;;11.26;100.00
9141;BME280;46330;50.822;7.126;2023-08-08T03:40:59;100821.03;;;11.20;100.00
9141;BME280;46330;50.822;7.126;2023-08-08T03:43:27;100811.47;;;11.18;100.00
9141;BME280;46330;50.822;7.126;2023-08-08T03:45:55;100818.56;;;11.13;100.00
9141;BME280;46330;50.822;7.126;2023-08-08T03:48:23;100819.38;;;11.16;100.00
9141;BME280;46330;50.822;7.126;2023-08-08T03:50:51;100818.44;;;11.19;100.00
9141;BME280;46330;50.822;7.126;2023-08-08T03:53:19;100821.88;;;11.22;100.00
9141;BME280;46330;50.822;7.126;2023-08-08T03:55:48;100820.34;;;11.11;100.00
9141;BME280;46330;50.822;7.126;2023-08-08T03:58:18;100817.69;;;11.14;100.00
9141;BME280;46330;50.822;7.126;2023-08-08T04:00:46;100817.63;;;11.15;100.00
9141;BME280;46330;50.822;7.126;2023-08-08T04:03:16;100816.88;;;11.09;100.00
9141;BME280;46330;50.822;7.126;2023-08-08T04:05:44;100814.25;;;11.09;100.00
9141;BME280;46330;50.822;7.126;2023-08-08T04:08:14;100820.41;;;11.06;100.00
9141;BME280;46330;50.822;7.126;2023-08-08T04:10:43;100818.75;;;11.02;100.00
9141;BME280;46330;50.822;7.126;2023-08-08T04:13:11;100825.94;;;10.93;100.00
9141;BME280;46330;50.822;7.126;2023-08-08T04:15:40;100823.38;;;10.88;100.00
9141;BME280;46330;50.822;7.126;2023-08-08T04:18:08;100819.88;;;10.88;100.00
9141;BME280;46330;50.822;7.126;2023-08-08T04:20:36;100819.88;;;10.89;100.00
9141;BME280;46330;50.822;7.126;2023-08-08T04:23:04;100819.88;;;10.89;100.00
9141;BME280;46330;50.822;7.126;2023-08-08T04:25:32;100819.81;;;10.92;100.00
9141;BME280;46330;50.822;7.126;2023-08-08T04:28:00;100824.19;;;10.90;100.00
9141;BME280;46330;50.822;7.126;2023-08-08T04:30:27;100818.13;;;10.88;100.00
9141;BME280;46330;50.822;7.126;2023-08-08T04:32:57;100819.88;;;10.89;100.00
9141;BME280;46330;50.822;7.126;2023-08-08T04:35:25;100827.72;;;10.89;100.00
9141;BME280;46330;50.822;7.126;2023-08-08T04:37:53;100829.38;;;10.93;100.00
9141;BME280;46330;50.822;7.126;2023-08-08T04:40:21;100834.56;;;10.96;100.00
9141;BME280;46330;50.822;7.126;2023-08-08T04:42:49;100833.78;;;10.93;100.00
9141;BME280;46330;50.822;7.126;2023-08-08T04:45:17;100832.91;;;10.92;100.00
9141;BME280;46330;50.822;7.126;2023-08-08T04:47:45;100829.31;;;10.96;100.00
9141;BME280;46330;50.822;7.126;2023-08-08T04:50:15;100831.00;;;11.02;100.00
9141;BME280;46330;50.822;7.126;2023-08-08T04:52:43;100831.00;;;11.02;100.00
9141;BME280;46330;50.822;7.126;2023-08-08T04:55:11;100829.16;;;11.05;100.00
9141;BME280;46330;50.822;7.126;2023-08-08T04:57:39;100829.13;;;11.08;100.00
9141;BME280;46330;50.822;7.126;2023-08-08T05:00:07;100830.75;;;11.14;100.00
9141;BME280;46330;50.822;7.126;2023-08-08T05:02:35;100830.31;;;11.37;100.00
9141;BME280;46330;50.822;7.126;2023-08-08T05:05:06;100827.19;;;11.62;100.00
9141;BME280;46330;50.822;7.126;2023-08-08T05:07:36;100826.75;;;11.83;100.00
9141;BME280;46330;50.822;7.126;2023-08-08T05:10:05;100830.34;;;11.79;100.00
9141;BME280;46330;50.822;7.126;2023-08-08T05:12:33;100827.63;;;11.84;100.00
9141;BME280;46330;50.822;7.126;2023-08-08T05:15:01;100827.19;;;12.04;100.00
9141;BME280;46330;50.822;7.126;2023-08-08T05:17:29;100816.00;;;12.34;100.00
9141;BME280;46330;50.822;7.126;2023-08-08T05:19:58;100829.25;;;12.65;100.00
9141;BME280;46330;50.822;7.126;2023-08-08T05:22:25;100823.06;;;13.01;100.00
9141;BME280;46330;50.822;7.126;2023-08-08T05:24:55;100815.28;;;12.98;100.00
9141;BME280;46330;50.822;7.126;2023-08-08T05:27:23;100812.66;;;12.98;100.00
9141;BME280;46330;50.822;7.126;2023-08-08T05:29:51;100817.81;;;13.01;100.00
9141;BME280;46330;50.822;7.126;2023-08-08T05:32:19;100818.56;;;13.06;100.00
9141;BME280;46330;50.822;7.126;2023-08-08T05:34:47;100820.28;;;13.07;100.00
9141;BME280;46330;50.822;7.126;2023-08-08T05:37:15;100819.41;;;13.07;100.00
9141;BME280;46330;50.822;7.126;2023-08-08T05:39:43;100820.25;;;13.09;100.00
9141;BME280;46330;50.822;7.126;2023-08-08T05:42:13;100824.44;;;13.16;100.00
9141;BME280;46330;50.822;7.126;2023-08-08T05:44:41;100817.47;;;13.15;100.00
9141;BME280;46330;50.822;7.126;2023-08-08T05:47:09;100824.44;;;13.16;100.00
9141;BME280;46330;50.822;7.126;2023-08-08T05:49:38;100814.03;;;13.13;100.00
9141;BME280;46330;50.822;7.126;2023-08-08T05:52:08;100820.97;;;13.15;99.89
9141;BME280;46330;50.822;7.126;2023-08-08T05:54:36;100823.34;;;13.24;99.98
9141;BME280;46330;50.822;7.126;2023-08-08T05:57:05;100820.53;;;13.30;100.00
9141;BME280;46330;50.822;7.126;2023-08-08T05:59:34;100817.81;;;13.33;99.98
9141;BME280;46330;50.822;7.126;2023-08-08T06:02:02;100814.91;;;13.44;100.00
9141;BME280;46330;50.822;7.126;2023-08-08T06:04:31;100821.75;;;13.50;99.21
9141;BME280;46330;50.822;7.126;2023-08-08T06:06:59;100814.56;;;13.56;99.43
9141;BME280;46330;50.822;7.126;2023-08-08T06:09:27;100820.41;;;13.66;99.32
9141;BME280;46330;50.822;7.126;2023-08-08T06:11:55;100822.97;;;13.69;98.67
9141;BME280;46330;50.822;7.126;2023-08-08T06:14:23;100814.75;;;13.79;98.65
9141;BME280;46330;50.822;7.126;2023-08-08T06:16:53;100819.91;;;13.82;98.67
9141;BME280;46330;50.822;7.126;2023-08-08T06:19:21;100821.44;;;13.91;98.88
9141;BME280;46330;50.822;7.126;2023-08-08T06:21:49;100823.72;;;14.01;98.29
9141;BME280;46330;50.822;7.126;2023-08-08T06:24:17;100815.91;;;13.98;97.74
9141;BME280;46330;50.822;7.126;2023-08-08T06:26:45;100826.22;;;14.06;98.41
9141;BME280;46330;50.822;7.126;2023-08-08T06:29:13;100825.22;;;14.10;97.91
9141;BME280;46330;50.822;7.126;2023-08-08T06:31:41;100830.13;;;14.21;98.21
9141;BME280;46330;50.822;7.126;2023-08-08T06:34:10;100829.13;;;14.25;97.30
9141;BME280;46330;50.822;7.126;2023-08-08T06:36:38;100834.91;;;14.37;97.23
9141;BME280;46330;50.822;7.126;2023-08-08T06:39:06;100833.72;;;14.47;97.51
9141;BME280;46330;50.822;7.126;2023-08-08T06:41:35;100828.84;;;14.62;97.53
9141;BME280;46330;50.822;7.126;2023-08-08T06:44:03;100822.53;;;14.67;96.37
9141;BME280;46330;50.822;7.126;2023-08-08T06:46:31;100827.44;;;14.78;96.81
9141;BME280;46330;50.822;7.126;2023-08-08T06:48:59;100823.63;;;14.86;95.96
9141;BME280;46330;50.822;7.126;2023-08-08T06:51:29;100831.44;;;14.89;95.63
9141;BME280;46330;50.822;7.126;2023-08-08T06:53:57;100826.81;;;14.96;96.17
9141;BME280;46330;50.822;7.126;2023-08-08T06:56:25;100826.28;;;15.11;95.62
9141;BME280;46330;50.822;7.126;2023-08-08T06:58:53;100821.28;;;15.28;94.31
9141;BME280;46330;50.822;7.126;2023-08-08T07:01:21;100820.66;;;15.22;93.56
9141;BME280;46330;50.822;7.126;2023-08-08T07:03:49;100823.84;;;15.30;93.68
9141;BME280;46330;50.822;7.126;2023-08-08T07:06:18;100827.63;;;15.47;93.52
9141;BME280;46330;50.822;7.126;2023-08-08T07:08:47;100824.47;;;15.63;91.71
9141;BME280;46330;50.822;7.126;2023-08-08T07:11:15;100821.13;;;15.57;90.68
9141;BME280;46330;50.822;7.126;2023-08-08T07:13:43;100823.59;;;15.62;87.67
9141;BME280;46330;50.822;7.126;2023-08-08T07:16:10;100812.88;;;15.90;86.51
9141;BME280;46330;50.822;7.126;2023-08-08T07:18:38;100811.88;;;15.92;86.96
9141;BME280;46330;50.822;7.126;2023-08-08T07:21:06;100806.56;;;16.81;83.74
9141;BME280;46330;50.822;7.126;2023-08-08T07:23:34;100804.41;;;16.90;80.73
9141;BME280;46330;50.822;7.126;2023-08-08T07:26:04;100806.31;;;17.07;80.18
9141;BME280;46330;50.822;7.126;2023-08-08T07:28:31;100804.19;;;17.55;77.54
9141;BME280;46330;50.822;7.126;2023-08-08T07:31:00;100805.91;;;17.36;79.44
9141;BME280;46330;50.822;7.126;2023-08-08T07:33:28;100799.19;;;17.68;75.71
9141;BME280;46330;50.822;7.126;2023-08-08T07:35:56;100802.06;;;17.43;76.22
9141;BME280;46330;50.822;7.126;2023-08-08T07:38:24;100803.34;;;17.53;76.78
9141;BME280;46330;50.822;7.126;2023-08-08T07:40:52;100809.44;;;16.96;77.47
9141;BME280;46330;50.822;7.126;2023-08-08T07:43:22;100809.44;;;16.96;77.60
9141;BME280;46330;50.822;7.126;2023-08-08T07:45:50;100812.59;;;16.84;77.82
9141;BME280;46330;50.822;7.126;2023-08-08T07:48:17;100792.09;;;17.68;74.41
9141;BME280;46330;50.822;7.126;2023-08-08T07:50:45;100805.69;;;18.17;73.03
9141;BME280;46330;50.822;7.126;2023-08-08T07:53:13;100807.06;;;18.07;73.16
9141;BME280;46330;50.822;7.126;2023-08-08T07:55:41;100807.41;;;17.62;74.77
9141;BME280;46330;50.822;7.126;2023-08-08T07:58:09;100799.69;;;17.76;74.65
9141;BME280;46330;50.822;7.126;2023-08-08T08:00:38;100802.75;;;18.59;71.33
9141;BME280;46330;50.822;7.126;2023-08-08T08:03:07;100809.59;;;18.99;69.94
9141;BME280;46330;50.822;7.126;2023-08-08T08:05:35;100809.66;;;18.97;67.99
9141;BME280;46330;50.822;7.126;2023-08-08T08:08:04;100806.69;;;19.70;65.64
9141;BME280;46330;50.822;7.126;2023-08-08T08:10:32;100819.72;;;19.08;67.93
9141;BME280;46330;50.822;7.126;2023-08-08T08:13:00;100822.69;;;18.49;67.44
9141;BME280;46330;50.822;7.126;2023-08-08T08:15:28;100810.38;;;18.29;70.36
9141;BME280;46330;50.822;7.126;2023-08-08T08:17:58;100818.31;;;18.84;68.67
9141;BME280;46330;50.822;7.126;2023-08-08T08:20:26;100809.00;;;18.58;69.95
9141;BME280;46330;50.822;7.126;2023-08-08T08:22:54;100811.34;;;18.64;67.95
9141;BME280;46330;50.822;7.126;2023-08-08T08:25:22;100806.97;;;19.31;66.96
9141;BME280;46330;50.822;7.126;2023-08-08T08:27:50;100804.41;;;19.13;66.56
9141;BME280;46330;50.822;7.126;2023-08-08T08:30:18;100809.88;;;19.10;66.51
9141;BME280;46330;50.822;7.126;2023-08-08T08:32:46;100809.72;;;19.63;65.44
9141;BME280;46330;50.822;7.126;2023-08-08T08:35:15;100800.75;;;20.29;61.23
9141;BME280;46330;50.822;7.126;2023-08-08T08:37:43;100807.03;;;19.80;64.27
9141;BME280;46330;50.822;7.126;2023-08-08T08:40:11;100802.53;;;19.32;66.04
9141;BME280;46330;50.822;7.126;2023-08-08T08:42:39;100798.41;;;19.09;66.70
9141;BME280;46330;50.822;7.126;2023-08-08T08:45:09;100807.25;;;18.93;67.75
9141;BME280;46330;50.822;7.126;2023-08-08T08:47:37;100799.59;;;19.21;67.49
9141;BME280;46330;50.822;7.126;2023-08-08T08:50:08;100805.06;;;19.83;64.40
9141;BME280;46330;50.822;7.126;2023-08-08T08:52:38;100810.72;;;19.93;64.52
9141;BME280;46330;50.822;7.126;2023-08-08T08:55:07;100807.19;;;20.08;64.62
9141;BME280;46330;50.822;7.126;2023-08-08T08:57:35;100812.09;;;19.34;65.34
9141;BME280;46330;50.822;7.126;2023-08-08T09:00:05;100811.69;;;20.08;61.05
9141;BME280;46330;50.822;7.126;2023-08-08T09:02:33;100803.81;;;20.37;62.73
9141;BME280;46330;50.822;7.126;2023-08-08T09:05:02;100812.56;;;20.85;60.31
9141;BME280;46330;50.822;7.126;2023-08-08T09:07:31;100804.81;;;20.19;59.29
9141;BME280;46330;50.822;7.126;2023-08-08T09:10:02;100811.50;;;19.29;61.25
9141;BME280;46330;50.822;7.126;2023-08-08T09:12:30;100801.94;;;19.60;60.37
9141;BME280;46330;50.822;7.126;2023-08-08T09:14:59;100800.72;;;19.32;60.21
9141;BME280;46330;50.822;7.126;2023-08-08T09:17:27;100803.84;;;19.73;59.96
9141;BME280;46330;50.822;7.126;2023-08-08T09:20:14;100803.13;;;20.79;57.40
9141;BME280;46330;50.822;7.126;2023-08-08T09:22:42;100800.56;;;20.78;56.55
9141;BME280;46330;50.822;7.126;2023-08-08T09:25:12;100793.72;;;20.28;57.15
9141;BME280;46330;50.822;7.126;2023-08-08T09:27:41;100791.38;;;20.07;56.90
9141;BME280;46330;50.822;7.126;2023-08-08T09:30:10;100802.84;;;19.76;60.17
9141;BME280;46330;50.822;7.126;2023-08-08T09:32:38;100801.09;;;19.75;59.91
9141;BME280;46330;50.822;7.126;2023-08-08T09:35:07;100803.91;;;20.52;57.08
9141;BME280;46330;50.822;7.126;2023-08-08T09:37:37;100810.13;;;20.66;58.48
9141;BME280;46330;50.822;7.126;2023-08-08T09:40:06;100795.13;;;20.50;57.93
9141;BME280;46330;50.822;7.126;2023-08-08T09:42:35;100793.91;;;20.24;55.17
9141;BME280;46330;50.822;7.126;2023-08-08T09:45:05;100801.75;;;20.27;54.92
9141;BME280;46330;50.822;7.126;2023-08-08T09:47:33;100804.53;;;19.93;57.29
9141;BME280;46330;50.822;7.126;2023-08-08T09:50:02;100800.28;;;20.06;57.50
9141;BME280;46330;50.822;7.126;2023-08-08T09:52:33;100801.28;;;19.88;58.03
9141;BME280;46330;50.822;7.126;2023-08-08T09:55:02;100801.47;;;20.00;56.02
9141;BME280;46330;50.822;7.126;2023-08-08T09:57:31;100797.25;;;19.96;55.05
9141;BME280;46330;50.822;7.126;2023-08-08T10:00:02;100803.28;;;20.15;54.64
9141;BME280;46330;50.822;7.126;2023-08-08T10:02:32;100800.06;;;20.26;55.18
9141;BME280;46330;50.822;7.126;2023-08-08T10:05:01;100813.34;;;20.71;54.46
9141;BME280;46330;50.822;7.126;2023-08-08T10:07:31;100802.13;;;21.26;51.98
9141;BME280;46330;50.822;7.126;2023-08-08T10:09:59;100801.28;;;21.96;50.12
9141;BME280;46330;50.822;7.126;2023-08-08T10:12:27;100802.88;;;21.70;49.39
9141;BME280;46330;50.822;7.126;2023-08-08T10:14:55;100794.63;;;21.89;47.92
9141;BME280;46330;50.822;7.126;2023-08-08T10:17:24;100804.16;;;22.34;48.36
9141;BME280;46330;50.822;7.126;2023-08-08T10:19:53;100806.03;;;22.05;47.11
9141;BME280;46330;50.822;7.126;2023-08-08T10:22:24;100806.06;;;21.05;48.90
9141;BME280;46330;50.822;7.126;2023-08-08T10:24:53;100800.41;;;22.10;49.10
9141;BME280;46330;50.822;7.126;2023-08-08T10:27:27;100814.78;;;22.07;45.87
9141;BME280;46330;50.822;7.126;2023-08-08T10:30:01;100804.13;;;22.61;48.17
9141;BME280;46330;50.822;7.126;2023-08-08T10:32:38;100806.38;;;22.54;46.86
9141;BME280;46330;50.822;7.126;2023-08-08T10:35:06;100814.13;;;21.75;46.49
9141;BME280;46330;50.822;7.126;2023-08-08T10:37:35;100825.31;;;22.23;46.88
9141;BME280;46330;50.822;7.126;2023-08-08T10:40:05;100814.53;;;22.65;46.69
9141;BME280;46330;50.822;7.126;2023-08-08T10:42:42;100805.22;;;22.31;45.31
9141;BME280;46330;50.822;7.126;2023-08-08T10:45:11;100824.56;;;23.14;46.26
9141;BME280;46330;50.822;7.126;2023-08-08T10:47:42;100812.22;;;22.86;45.56
9141;BME280;46330;50.822;7.126;2023-08-08T10:50:12;100808.00;;;22.96;44.25
9141;BME280;46330;50.822;7.126;2023-08-08T10:52:51;100807.63;;;24.27;44.93
9141;BME280;46330;50.822;7.126;2023-08-08T10:55:20;100822.38;;;23.71;43.41
9141;BME280;46330;50.822;7.126;2023-08-08T10:57:56;100812.97;;;23.52;42.98
9141;BME280;46330;50.822;7.126;2023-08-08T11:00:27;100801.69;;;23.98;43.06
9141;BME280;46330;50.822;7.126;2023-08-08T11:02:58;100808.59;;;23.64;42.28
9141;BME280;46330;50.822;7.126;2023-08-08T11:05:31;100805.38;;;23.21;43.24
9141;BME280;46330;50.822;7.126;2023-08-08T11:08:00;100804.03;;;22.62;44.46
9141;BME280;46330;50.822;7.126;2023-08-08T11:10:28;100820.31;;;22.58;45.42
9141;BME280;46330;50.822;7.126;2023-08-08T11:12:59;100805.56;;;22.39;46.18
9141;BME280;46330;50.822;7.126;2023-08-08T11:15:27;100808.50;;;22.88;47.39
9141;BME280;46330;50.822;7.126;2023-08-08T11:17:58;100807.38;;;23.05;45.21
9141;BME280;46330;50.822;7.126;2023-08-08T11:20:30;100804.00;;;22.49;46.47
9141;BME280;46330;50.822;7.126;2023-08-08T11:22:59;100803.72;;;22.54;45.57
9141;BME280;46330;50.822;7.126;2023-08-08T11:25:29;100807.66;;;22.61;44.45
9141;BME280;46330;50.822;7.126;2023-08-08T11:27:58;100806.78;;;22.61;44.64
9141;BME280;46330;50.822;7.126;2023-08-08T11:30:29;100807.97;;;21.61;47.57
9141;BME280;46330;50.822;7.126;2023-08-08T11:32:59;100798.63;;;21.25;46.69
9141;BME280;46330;50.822;7.126;2023-08-08T11:35:30;100799.84;;;21.76;46.59
9141;BME280;46330;50.822;7.126;2023-08-08T11:38:01;100803.09;;;20.95;48.84
9141;BME280;46330;50.822;7.126;2023-08-08T11:40:31;100802.03;;;20.68;48.72
9141;BME280;46330;50.822;7.126;2023-08-08T11:42:59;100790.81;;;21.22;48.38
9141;BME280;46330;50.822;7.126;2023-08-08T11:45:27;100786.81;;;21.58;47.94
9141;BME280;46330;50.822;7.126;2023-08-08T11:47:55;100777.59;;;21.77;47.75
9141;BME280;46330;50.822;7.126;2023-08-08T11:50:25;100785.59;;;21.63;46.30
9141;BME280;46330;50.822;7.126;2023-08-08T11:52:55;100781.34;;;21.61;46.19
9141;BME280;46330;50.822;7.126;2023-08-08T11:55:27;100780.56;;;21.73;46.74
9141;BME280;46330;50.822;7.126;2023-08-08T11:57:55;100783.09;;;22.03;47.30
9141;BME280;46330;50.822;7.126;2023-08-08T12:00:27;100779.13;;;21.67;46.10
9141;BME280;46330;50.822;7.126;2023-08-08T12:02:56;100781.88;;;21.52;49.49
9141;BME280;46330;50.822;7.126;2023-08-08T12:05:26;100773.44;;;21.31;48.38
9141;BME280;46330;50.822;7.126;2023-08-08T12:07:55;100773.03;;;21.09;46.74
9141;BME280;46330;50.822;7.126;2023-08-08T12:10:24;100773.47;;;21.01;47.78
9141;BME280;46330;50.822;7.126;2023-08-08T12:12:53;100776.38;;;20.82;47.80
9141;BME280;46330;50.822;7.126;2023-08-08T12:15:23;100765.47;;;21.01;48.57
9141;BME280;46330;50.822;7.126;2023-08-08T12:17:51;100767.34;;;20.85;49.26
9141;BME280;46330;50.822;7.126;2023-08-08T12:20:19;100775.81;;;21.06;46.96
9141;BME280;46330;50.822;7.126;2023-08-08T12:22:49;100765.47;;;21.01;47.02
9141;BME280;46330;50.822;7.126;2023-08-08T12:25:17;100760.03;;;21.61;46.86
9141;BME280;46330;50.822;7.126;2023-08-08T12:27:44;100766.09;;;21.91;46.78
9141;BME280;46330;50.822;7.126;2023-08-08T12:30:15;100755.63;;;21.74;46.65
9141;BME280;46330;50.822;7.126;2023-08-08T12:32:43;100762.00;;;21.71;46.69
9141;BME280;46330;50.822;7.126;2023-08-08T12:35:11;100751.66;;;21.67;47.44
9141;BME280;46330;50.822;7.126;2023-08-08T12:37:39;100766.00;;;21.22;46.15
9141;BME280;46330;50.822;7.126;2023-08-08T12:40:09;100759.16;;;21.74;46.87
9141;BME280;46330;50.822;7.126;2023-08-08T12:42:37;100764.84;;;21.96;46.10
9141;BME280;46330;50.822;7.126;2023-08-08T12:45:06;100764.66;;;21.71;45.99
9141;BME280;46330;50.822;7.126;2023-08-08T12:47:34;100759.56;;;21.54;48.00
9141;BME280;46330;50.822;7.126;2023-08-08T12:50:03;100763.72;;;21.72;47.81
9141;BME280;46330;50.822;7.126;2023-08-08T12:52:31;100760.19;;;21.72;47.77
9141;BME280;46330;50.822;7.126;2023-08-08T12:54:59;100768.47;;;21.25;48.79
9141;BME280;46330;50.822;7.126;2023-08-08T12:57:29;100764.50;;;21.46;46.32
9141;BME280;46330;50.822;7.126;2023-08-08T12:59:57;100772.16;;;20.78;46.71
9141;BME280;46330;50.822;7.126;2023-08-08T13:02:25;100761.47;;;20.19;47.16
9141;BME280;46330;50.822;7.126;2023-08-08T13:04:52;100766.59;;;20.06;48.90
9141;BME280;46330;50.822;7.126;2023-08-08T13:07:20;100768.72;;;20.47;49.23